sensor_id;sensor_type;location;lat;lon;timestamp;temperature;humidity
46730;DHT22;32476;50.002;11.854;2023-05-14T00:00:58;7.80;99.90
46730;DHT22;32476;50.002;11.854;2023-05-14T00:03:24;7.90;99.90
46730;DHT22;32476;50.002;11.854;2023-05-14T00:05:51;7.80;99.90
46730;DHT22;32476;50.002;11.854;2023-05-14T00:08:19;7.80;99.90
46730;DHT22;32476;50.002;11.854;2023-05-14T00:10:45;7.80;99.90
46730;DHT22;32476;50.002;11.854;2023-05-14T00:13:12;7.80;99.90
46730;DHT22;32476;50.002;11.854;2023-05-14T00:15:38;7.80;99.90
46730;DHT22;32476;50.002;11.854;2023-05-14T00:18:04;7.80;99.90
46730;DHT22;32476;50.002;11.854;2023-05-14T00:20:33;7.80;99.90
46730;DHT22;32476;50.002;11.854;2023-05-14T00:22:58;7.70;99.90
46730;DHT22;32476;50.002;11.854;2023-05-14T00:25:24;7.60;99.90
46730;DHT22;32476;50.002;11.854;2023-05-14T00:27:51;7.60;99.90
46730;DHT22;32476;50.002;11.854;2023-05-14T00:30:17;7.60;99.90
46730;DHT22;32476;50.002;11.854;2023-05-14T00:32:43;7.60;99.90
46730;DHT22;32476;50.002;11.854;2023-05-14T00:35:10;7.60;99.90
46730;DHT22;32476;50.002;11.854;2023-05-14T00:37:36;7.50;99.90
46730;DHT22;32476;50.002;11.854;2023-05-14T00:40:02;7.60;99.90
46730;DHT22;32476;50.002;11.854;2023-05-14T00:42:30;7.50;99.90
46730;DHT22;32476;50.002;11.854;2023-05-14T00:44:56;7.50;99.90
46730;DHT22;32476;50.002;11.854;2023-05-14T00:47:22;7.50;99.90
46730;DHT22;32476;50.002;11.854;2023-05-14T00:49:49;7.60;99.90
46730;DHT22;32476;50.002;11.854;2023-05-14T00:52:15;7.50;99.90
46730;DHT22;32476;50.002;11.854;2023-05-14T00:54:41;7.50;99.90
46730;DHT22;32476;50.002;11.854;2023-05-14T00:57:08;7.50;99.90
46730;DHT22;32476;50.002;11.854;2023-05-14T00:59:34;7.40;99.90
46730;DHT22;32476;50.002;11.854;2023-05-14T01:02:00;7.40;99.90
46730;DHT22;32476;50.002;11.854;2023-05-14T01:04:28;7.40;99.90
46730;DHT22;32476;50.002;11.854;2023-05-14T01:07:19;7.30;99.90
46730;DHT22;32476;50.002;11.854;2023-05-14T01:09:58;7.40;99.90
46730;DHT22;32476;50.002;11.854;2023-05-14T01:12:45;7.30;99.90
46730;DHT22;32476;50.002;11.854;2023-05-14T01:15:30;7.30;99.90
46730;DHT22;32476;50.002;11.854;2023-05-14T01:18:17;7.30;99.90
46730;DHT22;32476;50.002;11.854;2023-05-14T01:20:49;7.30;99.90
46730;DHT22;32476;50.002;11.854;2023-05-14T01:23:15;7.30;99.90
46730;DHT22;32476;50.002;11.854;2023-05-14T01:25:41;7.30;99.90
46730;DHT22;32476;50.002;11.854;2023-05-14T01:28:17;7.30;99.90
46730;DHT22;32476;50.002;11.854;2023-05-14T01:30:47;7.30;99.90
46730;DHT22;32476;50.002;11.854;2023-05-14T01:33:17;7.20;99.90
46730;DHT22;32476;50.002;11.854;2023-05-14T01:35:43;7.20;99.90
46730;DHT22;32476;50.002;11.854;2023-05-14T01:38:12;7.20;99.90
46730;DHT22;32476;50.002;11.854;2023-05-14T01:40:40;7.20;99.90
46730;DHT22;32476;50.002;11.854;2023-05-14T01:43:07;7.20;99.90
46730;DHT22;32476;50.002;11.854;2023-05-14T01:45:34;7.20;99.90
46730;DHT22;32476;50.002;11.854;2023-05-14T01:48:03;7.20;99.90
46730;DHT22;32476;50.002;11.854;2023-05-14T01:50:29;7.20;99.90
46730;DHT22;32476;50.002;11.854;2023-05-14T01:52:56;7.20;99.90
46730;DHT22;32476;50.002;11.854;2023-05-14T01:55:23;7.20;99.90
46730;DHT22;32476;50.002;11.854;2023-05-14T01:57:50;7.20;99.90
46730;DHT22;32476;50.002;11.854;2023-05-14T02:00:16;7.10;99.90
46730;DHT22;32476;50.002;11.854;2023-05-14T02:02:43;7.10;99.90
46730;DHT22;32476;50.002;11.854;2023-05-14T02:05:10;7.10;99.90
46730;DHT22;32476;50.002;11.854;2023-05-14T02:07:36;7.10;99.90
46730;DHT22;32476;50.002;11.854;2023-05-14T02:10:03;7.10;99.90
46730;DHT22;32476;50.002;11.854;2023-05-14T02:12:29;7.10;99.90
46730;DHT22;32476;50.002;11.854;2023-05-14T02:14:55;7.00;99.90
46730;DHT22;32476;50.002;11.854;2023-05-14T02:17:24;7.00;99.90
46730;DHT22;32476;50.002;11.854;2023-05-14T02:19:50;7.00;99.90
46730;DHT22;32476;50.002;11.854;2023-05-14T02:22:16;7.00;99.90
46730;DHT22;32476;50.002;11.854;2023-05-14T02:24:43;7.00;99.90
46730;DHT22;32476;50.002;11.854;2023-05-14T02:27:09;7.10;99.90
46730;DHT22;32476;50.002;11.854;2023-05-14T02:29:37;7.10;99.90
46730;DHT22;32476;50.002;11.854;2023-05-14T02:32:04;7.10;99.90
46730;DHT22;32476;50.002;11.854;2023-05-14T02:34:30;7.10;99.90
46730;DHT22;32476;50.002;11.854;2023-05-14T02:36:58;7.10;99.90
46730;DHT22;32476;50.002;11.854;2023-05-14T02:39:26;7.10;99.90
46730;DHT22;32476;50.002;11.854;2023-05-14T02:41:52;7.10;99.90
46730;DHT22;32476;50.002;11.854;2023-05-14T02:44:18;7.10;99.90
46730;DHT22;32476;50.002;11.854;2023-05-14T02:46:46;7.10;99.90
46730;DHT22;32476;50.002;11.854;2023-05-14T02:49:11;7.20;99.90
46730;DHT22;32476;50.002;11.854;2023-05-14T02:51:37;7.20;99.90
46730;DHT22;32476;50.002;11.854;2023-05-14T02:54:05;7.20;99.90
46730;DHT22;32476;50.002;11.854;2023-05-14T02:56:30;7.20;99.90
46730;DHT22;32476;50.002;11.854;2023-05-14T02:58:56;7.30;99.90
46730;DHT22;32476;50.002;11.854;2023-05-14T03:01:23;7.30;99.90
46730;DHT22;32476;50.002;11.854;2023-05-14T03:03:49;7.30;99.90
46730;DHT22;32476;50.002;11.854;2023-05-14T03:10:01;7.40;99.90
46730;DHT22;32476;50.002;11.854;2023-05-14T03:12:26;7.40;99.90
46730;DHT22;32476;50.002;11.854;2023-05-14T03:14:52;7.40;99.90
46730;DHT22;32476;50.002;11.854;2023-05-14T03:17:19;7.40;99.90
46730;DHT22;32476;50.002;11.854;2023-05-14T03:19:45;7.50;99.90
46730;DHT22;32476;50.002;11.854;2023-05-14T03:22:11;7.40;99.90
46730;DHT22;32476;50.002;11.854;2023-05-14T03:24:38;7.50;99.90
46730;DHT22;32476;50.002;11.854;2023-05-14T03:27:05;7.50;99.90
46730;DHT22;32476;50.002;11.854;2023-05-14T03:29:31;7.50;99.90
46730;DHT22;32476;50.002;11.854;2023-05-14T03:31:58;7.50;99.90
46730;DHT22;32476;50.002;11.854;2023-05-14T03:34:24;7.60;99.90
46730;DHT22;32476;50.002;11.854;2023-05-14T03:36:50;7.60;99.90
46730;DHT22;32476;50.002;11.854;2023-05-14T03:39:17;7.60;99.90
46730;DHT22;32476;50.002;11.854;2023-05-14T03:41:47;7.70;99.90
46730;DHT22;32476;50.002;11.854;2023-05-14T03:44:12;7.70;99.90
46730;DHT22;32476;50.002;11.854;2023-05-14T03:46:40;7.70;99.90
46730;DHT22;32476;50.002;11.854;2023-05-14T03:49:06;7.70;99.90
46730;DHT22;32476;50.002;11.854;2023-05-14T03:51:32;7.70;99.90
46730;DHT22;32476;50.002;11.854;2023-05-14T03:54:00;7.70;99.90
46730;DHT22;32476;50.002;11.854;2023-05-14T03:56:26;7.70;99.90
46730;DHT22;32476;50.002;11.854;2023-05-14T03:58:52;7.70;99.90
46730;DHT22;32476;50.002;11.854;2023-05-14T04:01:19;7.70;99.90
46730;DHT22;32476;50.002;11.854;2023-05-14T04:03:45;7.70;99.90
46730;DHT22;32476;50.002;11.854;2023-05-14T04:06:11;7.70;99.90
46730;DHT22;32476;50.002;11.854;2023-05-14T04:08:38;7.80;99.90
46730;DHT22;32476;50.002;11.854;2023-05-14T04:11:04;7.80;99.90
46730;DHT22;32476;50.002;11.854;2023-05-14T04:13:30;7.80;99.90
46730;DHT22;32476;50.002;11.854;2023-05-14T04:15:57;7.80;99.90
46730;DHT22;32476;50.002;11.854;2023-05-14T04:18:23;7.80;99.90
46730;DHT22;32476;50.002;11.854;2023-05-14T04:20:49;7.80;99.90
46730;DHT22;32476;50.002;11.854;2023-05-14T04:23:16;7.80;99.90
46730;DHT22;32476;50.002;11.854;2023-05-14T04:25:42;7.80;99.90
46730;DHT22;32476;50.002;11.854;2023-05-14T04:28:08;7.80;99.90
46730;DHT22;32476;50.002;11.854;2023-05-14T04:30:35;7.90;99.90
46730;DHT22;32476;50.002;11.854;2023-05-14T04:33:01;7.90;99.90
46730;DHT22;32476;50.002;11.854;2023-05-14T04:35:27;7.90;99.90
46730;DHT22;32476;50.002;11.854;2023-05-14T04:37:54;7.90;99.90
46730;DHT22;32476;50.002;11.854;2023-05-14T04:40:21;7.90;99.90
46730;DHT22;32476;50.002;11.854;2023-05-14T04:42:47;8.00;99.90
46730;DHT22;32476;50.002;11.854;2023-05-14T04:45:14;7.90;99.90
46730;DHT22;32476;50.002;11.854;2023-05-14T04:47:41;7.90;99.90
46730;DHT22;32476;50.002;11.854;2023-05-14T04:50:08;8.00;99.90
46730;DHT22;32476;50.002;11.854;2023-05-14T04:52:37;8.00;99.90
46730;DHT22;32476;50.002;11.854;2023-05-14T04:55:03;8.00;99.90
46730;DHT22;32476;50.002;11.854;2023-05-14T04:57:29;8.00;99.90
46730;DHT22;32476;50.002;11.854;2023-05-14T04:59:57;8.10;99.90
46730;DHT22;32476;50.002;11.854;2023-05-14T05:02:22;8.10;99.90
46730;DHT22;32476;50.002;11.854;2023-05-14T05:04:48;8.10;99.90
46730;DHT22;32476;50.002;11.854;2023-05-14T05:07:15;8.10;99.90
46730;DHT22;32476;50.002;11.854;2023-05-14T05:09:42;8.10;99.90
46730;DHT22;32476;50.002;11.854;2023-05-14T05:12:08;8.20;99.90
46730;DHT22;32476;50.002;11.854;2023-05-14T05:14:35;8.20;99.90
46730;DHT22;32476;50.002;11.854;2023-05-14T05:17:01;8.20;99.90
46730;DHT22;32476;50.002;11.854;2023-05-14T05:19:27;8.20;99.90
46730;DHT22;32476;50.002;11.854;2023-05-14T05:21:54;8.20;99.90
46730;DHT22;32476;50.002;11.854;2023-05-14T05:24:20;8.20;99.90
46730;DHT22;32476;50.002;11.854;2023-05-14T05:26:46;8.20;99.90
46730;DHT22;32476;50.002;11.854;2023-05-14T05:29:13;8.30;99.90
46730;DHT22;32476;50.002;11.854;2023-05-14T05:31:39;8.30;99.90
46730;DHT22;32476;50.002;11.854;2023-05-14T05:34:06;8.40;99.90
46730;DHT22;32476;50.002;11.854;2023-05-14T05:36:33;8.50;99.90
46730;DHT22;32476;50.002;11.854;2023-05-14T05:38:58;8.50;99.90
46730;DHT22;32476;50.002;11.854;2023-05-14T05:41:24;8.40;99.90
46730;DHT22;32476;50.002;11.854;2023-05-14T05:43:52;8.40;99.90
46730;DHT22;32476;50.002;11.854;2023-05-14T05:46:18;8.40;99.90
46730;DHT22;32476;50.002;11.854;2023-05-14T05:48:44;8.50;99.90
46730;DHT22;32476;50.002;11.854;2023-05-14T05:51:11;8.50;99.90
46730;DHT22;32476;50.002;11.854;2023-05-14T05:53:37;8.50;99.90
46730;DHT22;32476;50.002;11.854;2023-05-14T05:56:03;8.50;99.90
46730;DHT22;32476;50.002;11.854;2023-05-14T05:58:30;8.60;99.90
46730;DHT22;32476;50.002;11.854;2023-05-14T06:00:56;8.50;99.90
46730;DHT22;32476;50.002;11.854;2023-05-14T06:03:23;8.60;99.90
46730;DHT22;32476;50.002;11.854;2023-05-14T06:05:50;8.60;99.90
46730;DHT22;32476;50.002;11.854;2023-05-14T06:08:18;8.60;99.90
46730;DHT22;32476;50.002;11.854;2023-05-14T06:10:44;8.60;99.90
46730;DHT22;32476;50.002;11.854;2023-05-14T06:13:12;8.60;99.90
46730;DHT22;32476;50.002;11.854;2023-05-14T06:15:38;8.50;99.90
46730;DHT22;32476;50.002;11.854;2023-05-14T06:18:03;8.60;99.90
46730;DHT22;32476;50.002;11.854;2023-05-14T06:20:31;8.60;99.90
46730;DHT22;32476;50.002;11.854;2023-05-14T06:22:57;8.60;99.90
46730;DHT22;32476;50.002;11.854;2023-05-14T06:25:23;8.60;99.90
46730;DHT22;32476;50.002;11.854;2023-05-14T06:27:50;8.60;99.90
46730;DHT22;32476;50.002;11.854;2023-05-14T06:30:16;8.60;99.90
46730;DHT22;32476;50.002;11.854;2023-05-14T06:32:42;8.70;99.90
46730;DHT22;32476;50.002;11.854;2023-05-14T06:35:09;8.70;99.90
46730;DHT22;32476;50.002;11.854;2023-05-14T06:37:35;8.70;99.90
46730;DHT22;32476;50.002;11.854;2023-05-14T06:40:01;8.80;99.90
46730;DHT22;32476;50.002;11.854;2023-05-14T06:42:29;8.70;99.90
46730;DHT22;32476;50.002;11.854;2023-05-14T06:44:55;8.70;99.90
46730;DHT22;32476;50.002;11.854;2023-05-14T06:47:21;8.80;99.90
46730;DHT22;32476;50.002;11.854;2023-05-14T06:49:48;8.90;99.90
46730;DHT22;32476;50.002;11.854;2023-05-14T06:52:14;9.00;99.90
46730;DHT22;32476;50.002;11.854;2023-05-14T06:54:40;8.90;99.90
46730;DHT22;32476;50.002;11.854;2023-05-14T06:57:07;9.00;99.90
46730;DHT22;32476;50.002;11.854;2023-05-14T06:59:33;9.10;99.90
46730;DHT22;32476;50.002;11.854;2023-05-14T07:01:59;9.20;99.90
46730;DHT22;32476;50.002;11.854;2023-05-14T07:04:27;9.40;99.90
46730;DHT22;32476;50.002;11.854;2023-05-14T07:06:53;9.40;99.90
46730;DHT22;32476;50.002;11.854;2023-05-14T07:09:18;9.50;99.90
46730;DHT22;32476;50.002;11.854;2023-05-14T07:11:46;9.70;99.90
46730;DHT22;32476;50.002;11.854;2023-05-14T07:14:11;9.50;99.90
46730;DHT22;32476;50.002;11.854;2023-05-14T07:16:37;9.60;99.90
46730;DHT22;32476;50.002;11.854;2023-05-14T07:19:05;9.70;99.90
46730;DHT22;32476;50.002;11.854;2023-05-14T07:21:30;9.90;99.90
46730;DHT22;32476;50.002;11.854;2023-05-14T07:23:58;9.80;99.90
46730;DHT22;32476;50.002;11.854;2023-05-14T07:26:25;9.70;99.90
46730;DHT22;32476;50.002;11.854;2023-05-14T07:28:51;9.90;99.90
46730;DHT22;32476;50.002;11.854;2023-05-14T07:31:17;9.90;99.90
46730;DHT22;32476;50.002;11.854;2023-05-14T07:33:44;9.90;99.90
46730;DHT22;32476;50.002;11.854;2023-05-14T07:36:10;10.00;99.90
46730;DHT22;32476;50.002;11.854;2023-05-14T07:38:36;10.00;99.90
46730;DHT22;32476;50.002;11.854;2023-05-14T07:41:04;9.90;99.90
46730;DHT22;32476;50.002;11.854;2023-05-14T07:43:29;10.10;99.90
46730;DHT22;32476;50.002;11.854;2023-05-14T07:45:55;10.20;99.90
46730;DHT22;32476;50.002;11.854;2023-05-14T07:48:23;10.30;99.90
46730;DHT22;32476;50.002;11.854;2023-05-14T07:50:48;10.20;99.90
46730;DHT22;32476;50.002;11.854;2023-05-14T07:53:14;10.20;99.90
46730;DHT22;32476;50.002;11.854;2023-05-14T07:55:41;10.30;99.90
46730;DHT22;32476;50.002;11.854;2023-05-14T07:58:09;10.30;99.90
46730;DHT22;32476;50.002;11.854;2023-05-14T08:00:35;10.30;99.90
46730;DHT22;32476;50.002;11.854;2023-05-14T08:03:03;10.40;99.90
46730;DHT22;32476;50.002;11.854;2023-05-14T08:05:38;10.40;99.90
46730;DHT22;32476;50.002;11.854;2023-05-14T08:08:06;10.30;99.90
46730;DHT22;32476;50.002;11.854;2023-05-14T08:10:31;10.50;99.90
46730;DHT22;32476;50.002;11.854;2023-05-14T08:12:57;10.40;99.90
46730;DHT22;32476;50.002;11.854;2023-05-14T08:15:24;10.40;99.90
46730;DHT22;32476;50.002;11.854;2023-05-14T08:17:50;10.30;99.90
46730;DHT22;32476;50.002;11.854;2023-05-14T08:20:16;10.30;99.90
46730;DHT22;32476;50.002;11.854;2023-05-14T08:22:43;10.40;99.90
46730;DHT22;32476;50.002;11.854;2023-05-14T08:25:09;10.40;99.90
46730;DHT22;32476;50.002;11.854;2023-05-14T08:27:35;10.60;99.90
46730;DHT22;32476;50.002;11.854;2023-05-14T08:30:03;11.00;99.90
46730;DHT22;32476;50.002;11.854;2023-05-14T08:32:29;10.90;99.90
46730;DHT22;32476;50.002;11.854;2023-05-14T08:34:55;11.10;99.90
46730;DHT22;32476;50.002;11.854;2023-05-14T08:37:22;11.30;99.90
46730;DHT22;32476;50.002;11.854;2023-05-14T08:39:48;11.30;99.90
46730;DHT22;32476;50.002;11.854;2023-05-14T08:42:14;11.40;99.90
46730;DHT22;32476;50.002;11.854;2023-05-14T08:44:55;11.40;99.90
46730;DHT22;32476;50.002;11.854;2023-05-14T08:47:22;11.80;99.90
46730;DHT22;32476;50.002;11.854;2023-05-14T08:50:20;11.80;99.90
46730;DHT22;32476;50.002;11.854;2023-05-14T08:52:47;11.90;99.90
46730;DHT22;32476;50.002;11.854;2023-05-14T08:55:14;12.10;99.90
46730;DHT22;32476;50.002;11.854;2023-05-14T08:57:40;12.10;99.90
46730;DHT22;32476;50.002;11.854;2023-05-14T09:00:06;12.00;99.90
46730;DHT22;32476;50.002;11.854;2023-05-14T09:02:40;11.90;99.90
46730;DHT22;32476;50.002;11.854;2023-05-14T09:05:07;12.00;99.90
46730;DHT22;32476;50.002;11.854;2023-05-14T09:07:34;11.70;99.90
46730;DHT22;32476;50.002;11.854;2023-05-14T09:10:01;11.70;99.90
46730;DHT22;32476;50.002;11.854;2023-05-14T09:12:28;11.70;99.90
46730;DHT22;32476;50.002;11.854;2023-05-14T09:14:54;11.70;99.90
46730;DHT22;32476;50.002;11.854;2023-05-14T09:17:24;11.70;99.90
46730;DHT22;32476;50.002;11.854;2023-05-14T09:19:50;11.70;99.90
46730;DHT22;32476;50.002;11.854;2023-05-14T09:22:18;11.80;99.90
46730;DHT22;32476;50.002;11.854;2023-05-14T09:24:45;12.20;99.90
46730;DHT22;32476;50.002;11.854;2023-05-14T09:27:28;12.50;99.90
46730;DHT22;32476;50.002;11.854;2023-05-14T09:30:07;12.20;99.90
46730;DHT22;32476;50.002;11.854;2023-05-14T09:32:41;12.30;99.90
46730;DHT22;32476;50.002;11.854;2023-05-14T09:35:20;12.20;99.90
46730;DHT22;32476;50.002;11.854;2023-05-14T09:37:48;12.30;99.90
46730;DHT22;32476;50.002;11.854;2023-05-14T09:40:17;12.50;99.90
46730;DHT22;32476;50.002;11.854;2023-05-14T09:42:44;12.80;99.90
46730;DHT22;32476;50.002;11.854;2023-05-14T09:45:10;12.80;99.90
46730;DHT22;32476;50.002;11.854;2023-05-14T09:47:38;12.60;99.90
46730;DHT22;32476;50.002;11.854;2023-05-14T09:50:05;12.60;99.90
46730;DHT22;32476;50.002;11.854;2023-05-14T09:52:31;12.50;99.90
46730;DHT22;32476;50.002;11.854;2023-05-14T09:54:59;12.20;99.90
46730;DHT22;32476;50.002;11.854;2023-05-14T09:57:26;12.30;99.90
46730;DHT22;32476;50.002;11.854;2023-05-14T09:59:52;12.10;99.90
46730;DHT22;32476;50.002;11.854;2023-05-14T10:02:29;12.10;99.90
46730;DHT22;32476;50.002;11.854;2023-05-14T10:05:03;12.20;99.90
46730;DHT22;32476;50.002;11.854;2023-05-14T10:07:43;12.30;99.90
46730;DHT22;32476;50.002;11.854;2023-05-14T10:10:15;12.60;99.90
46730;DHT22;32476;50.002;11.854;2023-05-14T10:12:48;12.50;99.90
46730;DHT22;32476;50.002;11.854;2023-05-14T10:15:29;13.50;99.90
46730;DHT22;32476;50.002;11.854;2023-05-14T10:18:03;13.80;99.90
46730;DHT22;32476;50.002;11.854;2023-05-14T10:20:33;13.70;99.90
46730;DHT22;32476;50.002;11.854;2023-05-14T10:23:00;13.30;99.90
46730;DHT22;32476;50.002;11.854;2023-05-14T10:25:26;13.20;99.90
46730;DHT22;32476;50.002;11.854;2023-05-14T10:27:53;13.20;99.90
46730;DHT22;32476;50.002;11.854;2023-05-14T10:30:21;13.20;99.90
46730;DHT22;32476;50.002;11.854;2023-05-14T10:33:05;13.10;99.90
46730;DHT22;32476;50.002;11.854;2023-05-14T10:36:02;13.00;99.90
46730;DHT22;32476;50.002;11.854;2023-05-14T10:38:33;13.40;99.90
46730;DHT22;32476;50.002;11.854;2023-05-14T10:41:11;13.50;99.90
46730;DHT22;32476;50.002;11.854;2023-05-14T10:43:39;13.70;99.90
46730;DHT22;32476;50.002;11.854;2023-05-14T10:46:08;14.00;99.90
46730;DHT22;32476;50.002;11.854;2023-05-14T10:48:36;14.00;99.90
46730;DHT22;32476;50.002;11.854;2023-05-14T10:51:06;14.50;99.90
46730;DHT22;32476;50.002;11.854;2023-05-14T10:56:05;14.60;99.90
46730;DHT22;32476;50.002;11.854;2023-05-14T10:58:34;14.60;99.90
46730;DHT22;32476;50.002;11.854;2023-05-14T11:01:02;14.60;99.90
46730;DHT22;32476;50.002;11.854;2023-05-14T11:03:31;14.10;99.90
46730;DHT22;32476;50.002;11.854;2023-05-14T11:06:01;14.10;99.90
46730;DHT22;32476;50.002;11.854;2023-05-14T11:08:30;14.40;99.90
46730;DHT22;32476;50.002;11.854;2023-05-14T11:10:57;14.30;99.90
46730;DHT22;32476;50.002;11.854;2023-05-14T11:13:22;14.30;99.90
46730;DHT22;32476;50.002;11.854;2023-05-14T11:15:52;14.10;99.90
46730;DHT22;32476;50.002;11.854;2023-05-14T11:18:28;13.90;99.90
46730;DHT22;32476;50.002;11.854;2023-05-14T11:20:59;14.00;99.90
46730;DHT22;32476;50.002;11.854;2023-05-14T11:23:26;14.00;99.90
46730;DHT22;32476;50.002;11.854;2023-05-14T11:25:53;14.00;99.90
46730;DHT22;32476;50.002;11.854;2023-05-14T11:28:22;14.00;99.90
46730;DHT22;32476;50.002;11.854;2023-05-14T11:30:49;14.00;99.90
46730;DHT22;32476;50.002;11.854;2023-05-14T11:33:15;14.10;99.90
46730;DHT22;32476;50.002;11.854;2023-05-14T11:35:44;14.10;99.90
46730;DHT22;32476;50.002;11.854;2023-05-14T11:38:15;14.20;99.90
46730;DHT22;32476;50.002;11.854;2023-05-14T11:40:41;14.10;99.90
46730;DHT22;32476;50.002;11.854;2023-05-14T11:43:09;14.40;99.90
46730;DHT22;32476;50.002;11.854;2023-05-14T11:45:35;14.30;99.90
46730;DHT22;32476;50.002;11.854;2023-05-14T11:48:11;14.40;99.90
46730;DHT22;32476;50.002;11.854;2023-05-14T11:50:42;14.50;99.90
46730;DHT22;32476;50.002;11.854;2023-05-14T11:53:09;13.90;99.90
46730;DHT22;32476;50.002;11.854;2023-05-14T11:55:36;14.00;99.90
46730;DHT22;32476;50.002;11.854;2023-05-14T11:58:05;14.30;99.90
46730;DHT22;32476;50.002;11.854;2023-05-14T12:00:32;14.10;99.90
46730;DHT22;32476;50.002;11.854;2023-05-14T12:03:01;14.00;99.90
46730;DHT22;32476;50.002;11.854;2023-05-14T12:05:29;14.30;99.90
46730;DHT22;32476;50.002;11.854;2023-05-14T12:07:55;14.20;99.90
46730;DHT22;32476;50.002;11.854;2023-05-14T12:10:21;14.10;99.90
46730;DHT22;32476;50.002;11.854;2023-05-14T12:12:50;14.10;99.90
46730;DHT22;32476;50.002;11.854;2023-05-14T12:15:16;14.00;99.90
46730;DHT22;32476;50.002;11.854;2023-05-14T12:17:48;13.90;99.90
46730;DHT22;32476;50.002;11.854;2023-05-14T12:20:16;13.80;99.90
46730;DHT22;32476;50.002;11.854;2023-05-14T12:22:42;14.00;99.90
46730;DHT22;32476;50.002;11.854;2023-05-14T12:25:12;14.00;99.90
46730;DHT22;32476;50.002;11.854;2023-05-14T12:27:40;14.00;99.90
46730;DHT22;32476;50.002;11.854;2023-05-14T12:30:06;14.10;99.90
46730;DHT22;32476;50.002;11.854;2023-05-14T12:32:33;14.00;99.90
46730;DHT22;32476;50.002;11.854;2023-05-14T12:35:02;14.10;99.90
46730;DHT22;32476;50.002;11.854;2023-05-14T12:37:28;14.00;99.90
46730;DHT22;32476;50.002;11.854;2023-05-14T12:39:54;14.00;99.90
46730;DHT22;32476;50.002;11.854;2023-05-14T12:42:22;14.10;99.90
46730;DHT22;32476;50.002;11.854;2023-05-14T12:44:47;14.50;99.90
46730;DHT22;32476;50.002;11.854;2023-05-14T12:47:13;14.60;99.90
46730;DHT22;32476;50.002;11.854;2023-05-14T12:49:41;14.40;99.90
46730;DHT22;32476;50.002;11.854;2023-05-14T12:52:07;14.50;99.90
46730;DHT22;32476;50.002;11.854;2023-05-14T12:54:32;14.60;99.90
46730;DHT22;32476;50.002;11.854;2023-05-14T12:57:00;14.70;99.90
46730;DHT22;32476;50.002;11.854;2023-05-14T12:59:25;14.50;99.90
46730;DHT22;32476;50.002;11.854;2023-05-14T13:01:51;14.40;99.90
46730;DHT22;32476;50.002;11.854;2023-05-14T13:04:18;14.30;99.90
46730;DHT22;32476;50.002;11.854;2023-05-14T13:06:44;14.10;99.90
46730;DHT22;32476;50.002;11.854;2023-05-14T13:09:10;14.40;99.90
46730;DHT22;32476;50.002;11.854;2023-05-14T13:11:37;14.40;99.90
46730;DHT22;32476;50.002;11.854;2023-05-14T13:14:03;14.30;99.90
46730;DHT22;32476;50.002;11.854;2023-05-14T13:16:29;14.40;99.90
46730;DHT22;32476;50.002;11.854;2023-05-14T13:18:59;14.00;99.90
46730;DHT22;32476;50.002;11.854;2023-05-14T13:21:25;13.90;99.90
46730;DHT22;32476;50.002;11.854;2023-05-14T13:23:50;13.80;99.90
46730;DHT22;32476;50.002;11.854;2023-05-14T13:26:18;14.00;99.90
46730;DHT22;32476;50.002;11.854;2023-05-14T13:28:44;13.80;99.90
46730;DHT22;32476;50.002;11.854;2023-05-14T13:31:12;14.00;99.90
46730;DHT22;32476;50.002;11.854;2023-05-14T13:33:41;14.20;99.90
46730;DHT22;32476;50.002;11.854;2023-05-14T13:36:08;14.40;99.90
46730;DHT22;32476;50.002;11.854;2023-05-14T13:38:34;14.70;99.90
46730;DHT22;32476;50.002;11.854;2023-05-14T13:41:02;15.20;99.90
46730;DHT22;32476;50.002;11.854;2023-05-14T13:43:29;15.20;99.90
46730;DHT22;32476;50.002;11.854;2023-05-14T13:45:55;14.90;99.90
46730;DHT22;32476;50.002;11.854;2023-05-14T13:48:23;14.70;99.90
46730;DHT22;32476;50.002;11.854;2023-05-14T13:50:50;14.60;99.90
46730;DHT22;32476;50.002;11.854;2023-05-14T13:53:17;14.80;99.90
46730;DHT22;32476;50.002;11.854;2023-05-14T13:56:16;14.80;99.90
46730;DHT22;32476;50.002;11.854;2023-05-14T13:58:42;15.00;99.90
46730;DHT22;32476;50.002;11.854;2023-05-14T14:01:09;15.00;99.90
46730;DHT22;32476;50.002;11.854;2023-05-14T14:03:35;15.30;99.90
46730;DHT22;32476;50.002;11.854;2023-05-14T14:06:01;15.40;99.90
46730;DHT22;32476;50.002;11.854;2023-05-14T14:08:28;15.10;99.90
46730;DHT22;32476;50.002;11.854;2023-05-14T14:10:55;15.20;99.90
46730;DHT22;32476;50.002;11.854;2023-05-14T14:13:21;14.90;99.90
46730;DHT22;32476;50.002;11.854;2023-05-14T14:15:48;14.60;99.90
46730;DHT22;32476;50.002;11.854;2023-05-14T14:18:14;14.40;99.90
46730;DHT22;32476;50.002;11.854;2023-05-14T14:20:40;14.40;99.90
46730;DHT22;32476;50.002;11.854;2023-05-14T14:23:07;14.60;99.90
46730;DHT22;32476;50.002;11.854;2023-05-14T14:25:33;14.80;99.90
46730;DHT22;32476;50.002;11.854;2023-05-14T14:27:59;15.00;99.90
46730;DHT22;32476;50.002;11.854;2023-05-14T14:30:27;15.30;99.90
46730;DHT22;32476;50.002;11.854;2023-05-14T14:32:52;15.40;99.90
46730;DHT22;32476;50.002;11.854;2023-05-14T14:35:19;15.00;99.90
46730;DHT22;32476;50.002;11.854;2023-05-14T14:37:46;15.30;99.90
46730;DHT22;32476;50.002;11.854;2023-05-14T14:40:17;14.90;99.90
46730;DHT22;32476;50.002;11.854;2023-05-14T14:42:45;14.90;99.90
46730;DHT22;32476;50.002;11.854;2023-05-14T14:45:12;15.10;99.90
46730;DHT22;32476;50.002;11.854;2023-05-14T14:47:42;15.20;99.90
46730;DHT22;32476;50.002;11.854;2023-05-14T14:50:08;15.40;99.90
46730;DHT22;32476;50.002;11.854;2023-05-14T14:52:35;16.50;99.90
46730;DHT22;32476;50.002;11.854;2023-05-14T14:55:01;16.90;99.90
46730;DHT22;32476;50.002;11.854;2023-05-14T14:57:27;17.20;99.90
46730;DHT22;32476;50.002;11.854;2023-05-14T14:59:54;17.30;99.90
46730;DHT22;32476;50.002;11.854;2023-05-14T15:02:20;17.60;99.90
46730;DHT22;32476;50.002;11.854;2023-05-14T15:04:46;17.40;99.90
46730;DHT22;32476;50.002;11.854;2023-05-14T15:07:13;17.40;99.90
46730;DHT22;32476;50.002;11.854;2023-05-14T15:09:41;17.40;99.90
46730;DHT22;32476;50.002;11.854;2023-05-14T15:12:07;17.60;99.90
46730;DHT22;32476;50.002;11.854;2023-05-14T15:14:36;17.60;99.90
46730;DHT22;32476;50.002;11.854;2023-05-14T15:17:01;18.00;99.90
46730;DHT22;32476;50.002;11.854;2023-05-14T15:19:28;18.00;99.90
46730;DHT22;32476;50.002;11.854;2023-05-14T15:21:55;18.20;99.90
46730;DHT22;32476;50.002;11.854;2023-05-14T15:24:21;18.00;99.90
46730;DHT22;32476;50.002;11.854;2023-05-14T15:26:48;17.90;99.50
46730;DHT22;32476;50.002;11.854;2023-05-14T15:29:15;17.40;99.90
46730;DHT22;32476;50.002;11.854;2023-05-14T15:31:41;17.80;99.90